sensor_id;sensor_type;location;lat;lon;timestamp;temperature;humidity
1592;DHT22;789;51.612;7.510;2023-05-31T00:01:19;15.00;1.00
1592;DHT22;789;51.612;7.510;2023-05-31T00:03:47;14.90;1.00
1592;DHT22;789;51.612;7.510;2023-05-31T00:06:14;14.90;1.00
1592;DHT22;789;51.612;7.510;2023-05-31T00:08:41;14.90;1.00
1592;DHT22;789;51.612;7.510;2023-05-31T00:11:08;14.90;1.00
1592;DHT22;789;51.612;7.510;2023-05-31T00:13:35;14.80;1.00
1592;DHT22;789;51.612;7.510;2023-05-31T00:16:01;14.80;1.00
1592;DHT22;789;51.612;7.510;2023-05-31T00:18:28;14.80;1.00
1592;DHT22;789;51.612;7.510;2023-05-31T00:20:56;14.70;1.00
1592;DHT22;789;51.612;7.510;2023-05-31T00:23:23;14.70;1.00
1592;DHT22;789;51.612;7.510;2023-05-31T00:25:50;14.70;1.00
1592;DHT22;789;51.612;7.510;2023-05-31T00:28:16;14.70;1.00
1592;DHT22;789;51.612;7.510;2023-05-31T00:30:43;14.70;1.00
1592;DHT22;789;51.612;7.510;2023-05-31T00:33:11;14.70;1.00
1592;DHT22;789;51.612;7.510;2023-05-31T00:35:38;14.60;1.00
1592;DHT22;789;51.612;7.510;2023-05-31T00:38:06;14.70;1.00
1592;DHT22;789;51.612;7.510;2023-05-31T00:40:33;14.60;1.00
1592;DHT22;789;51.612;7.510;2023-05-31T00:43:01;14.50;1.00
1592;DHT22;789;51.612;7.510;2023-05-31T00:45:27;14.50;1.00
1592;DHT22;789;51.612;7.510;2023-05-31T00:47:55;14.50;1.00
1592;DHT22;789;51.612;7.510;2023-05-31T00:50:25;14.50;1.00
1592;DHT22;789;51.612;7.510;2023-05-31T00:52:54;14.50;1.00
1592;DHT22;789;51.612;7.510;2023-05-31T00:55:23;14.50;1.00
1592;DHT22;789;51.612;7.510;2023-05-31T00:57:50;14.40;1.00
1592;DHT22;789;51.612;7.510;2023-05-31T01:00:18;14.40;1.00
1592;DHT22;789;51.612;7.510;2023-05-31T01:02:45;14.40;1.00
1592;DHT22;789;51.612;7.510;2023-05-31T01:05:11;14.40;1.00
1592;DHT22;789;51.612;7.510;2023-05-31T01:07:38;14.40;1.00
1592;DHT22;789;51.612;7.510;2023-05-31T01:10:06;14.40;1.00
1592;DHT22;789;51.612;7.510;2023-05-31T01:12:44;14.40;1.00
1592;DHT22;789;51.612;7.510;2023-05-31T01:15:16;14.40;1.00
1592;DHT22;789;51.612;7.510;2023-05-31T01:17:48;14.40;1.00
1592;DHT22;789;51.612;7.510;2023-05-31T01:20:20;14.40;1.00
1592;DHT22;789;51.612;7.510;2023-05-31T01:23:00;14.40;1.00
1592;DHT22;789;51.612;7.510;2023-05-31T01:26:05;14.40;1.00
1592;DHT22;789;51.612;7.510;2023-05-31T01:28:36;14.30;1.00
1592;DHT22;789;51.612;7.510;2023-05-31T01:31:05;14.40;1.00
1592;DHT22;789;51.612;7.510;2023-05-31T01:33:34;14.30;1.00
1592;DHT22;789;51.612;7.510;2023-05-31T01:36:01;14.30;1.00
1592;DHT22;789;51.612;7.510;2023-05-31T01:38:28;14.30;1.00
1592;DHT22;789;51.612;7.510;2023-05-31T01:40:56;14.30;1.00
1592;DHT22;789;51.612;7.510;2023-05-31T01:43:25;14.20;1.00
1592;DHT22;789;51.612;7.510;2023-05-31T01:45:54;14.20;1.00
1592;DHT22;789;51.612;7.510;2023-05-31T01:48:23;14.20;1.00
1592;DHT22;789;51.612;7.510;2023-05-31T01:50:50;14.20;1.00
1592;DHT22;789;51.612;7.510;2023-05-31T01:53:17;14.10;1.00
1592;DHT22;789;51.612;7.510;2023-05-31T01:55:44;14.10;1.00
1592;DHT22;789;51.612;7.510;2023-05-31T01:58:12;14.10;1.00
1592;DHT22;789;51.612;7.510;2023-05-31T02:00:58;14.00;1.00
1592;DHT22;789;51.612;7.510;2023-05-31T02:03:25;14.00;1.00
1592;DHT22;789;51.612;7.510;2023-05-31T02:05:56;14.00;1.00
1592;DHT22;789;51.612;7.510;2023-05-31T02:08:23;14.00;1.00
1592;DHT22;789;51.612;7.510;2023-05-31T02:10:50;13.90;1.00
1592;DHT22;789;51.612;7.510;2023-05-31T02:13:18;13.90;1.00
1592;DHT22;789;51.612;7.510;2023-05-31T02:15:45;13.90;1.00
1592;DHT22;789;51.612;7.510;2023-05-31T02:18:13;13.80;1.00
1592;DHT22;789;51.612;7.510;2023-05-31T02:20:42;13.80;1.00
1592;DHT22;789;51.612;7.510;2023-05-31T02:23:09;13.80;1.00
1592;DHT22;789;51.612;7.510;2023-05-31T02:25:36;13.80;1.00
1592;DHT22;789;51.612;7.510;2023-05-31T02:28:02;13.70;1.00
1592;DHT22;789;51.612;7.510;2023-05-31T02:30:30;13.70;1.00
1592;DHT22;789;51.612;7.510;2023-05-31T02:32:57;13.70;1.00
1592;DHT22;789;51.612;7.510;2023-05-31T02:35:29;13.70;1.00
1592;DHT22;789;51.612;7.510;2023-05-31T02:37:56;13.40;1.00
1592;DHT22;789;51.612;7.510;2023-05-31T02:40:23;13.70;1.00
1592;DHT22;789;51.612;7.510;2023-05-31T02:42:50;13.70;1.00
1592;DHT22;789;51.612;7.510;2023-05-31T02:45:18;13.70;1.00
1592;DHT22;789;51.612;7.510;2023-05-31T02:47:46;13.70;1.00
1592;DHT22;789;51.612;7.510;2023-05-31T02:50:13;13.70;1.00
1592;DHT22;789;51.612;7.510;2023-05-31T02:52:41;13.70;1.00
1592;DHT22;789;51.612;7.510;2023-05-31T02:55:08;13.70;1.00
1592;DHT22;789;51.612;7.510;2023-05-31T02:57:35;13.70;1.00
1592;DHT22;789;51.612;7.510;2023-05-31T03:00:03;13.70;1.00
1592;DHT22;789;51.612;7.510;2023-05-31T03:02:36;13.70;1.00
1592;DHT22;789;51.612;7.510;2023-05-31T03:05:03;13.60;1.00
1592;DHT22;789;51.612;7.510;2023-05-31T03:07:31;13.70;1.00
1592;DHT22;789;51.612;7.510;2023-05-31T03:09:59;13.70;1.00
1592;DHT22;789;51.612;7.510;2023-05-31T03:12:26;13.60;1.00
1592;DHT22;789;51.612;7.510;2023-05-31T03:14:52;13.60;1.00
1592;DHT22;789;51.612;7.510;2023-05-31T03:17:19;13.70;1.00
1592;DHT22;789;51.612;7.510;2023-05-31T03:19:46;13.80;1.00
1592;DHT22;789;51.612;7.510;2023-05-31T03:22:13;13.60;1.00
1592;DHT22;789;51.612;7.510;2023-05-31T03:24:40;13.60;1.00
1592;DHT22;789;51.612;7.510;2023-05-31T03:27:08;13.60;1.00
1592;DHT22;789;51.612;7.510;2023-05-31T03:29:37;13.60;1.00
1592;DHT22;789;51.612;7.510;2023-05-31T03:32:04;13.60;1.00
1592;DHT22;789;51.612;7.510;2023-05-31T03:34:31;13.60;1.00
1592;DHT22;789;51.612;7.510;2023-05-31T03:37:00;13.60;1.00
1592;DHT22;789;51.612;7.510;2023-05-31T03:39:27;13.60;1.00
1592;DHT22;789;51.612;7.510;2023-05-31T03:41:53;13.50;1.00
1592;DHT22;789;51.612;7.510;2023-05-31T03:44:22;13.50;1.00
1592;DHT22;789;51.612;7.510;2023-05-31T03:46:48;13.50;1.00
1592;DHT22;789;51.612;7.510;2023-05-31T03:49:15;13.50;1.00
1592;DHT22;789;51.612;7.510;2023-05-31T03:51:42;13.50;1.00
1592;DHT22;789;51.612;7.510;2023-05-31T03:54:09;13.50;1.00
1592;DHT22;789;51.612;7.510;2023-05-31T03:56:35;13.60;1.00
1592;DHT22;789;51.612;7.510;2023-05-31T03:59:02;13.50;1.00
1592;DHT22;789;51.612;7.510;2023-05-31T04:01:31;13.60;1.00
1592;DHT22;789;51.612;7.510;2023-05-31T04:03:58;13.60;1.00
1592;DHT22;789;51.612;7.510;2023-05-31T04:06:24;13.60;1.00
1592;DHT22;789;51.612;7.510;2023-05-31T04:08:52;13.60;1.00
1592;DHT22;789;51.612;7.510;2023-05-31T04:11:19;13.60;1.00
1592;DHT22;789;51.612;7.510;2023-05-31T04:13:47;13.60;1.00
1592;DHT22;789;51.612;7.510;2023-05-31T04:16:13;13.60;1.00
1592;DHT22;789;51.612;7.510;2023-05-31T04:18:41;13.70;1.00
1592;DHT22;789;51.612;7.510;2023-05-31T04:21:08;13.70;1.00
1592;DHT22;789;51.612;7.510;2023-05-31T04:23:35;13.70;1.00
1592;DHT22;789;51.612;7.510;2023-05-31T04:26:02;13.80;1.00
1592;DHT22;789;51.612;7.510;2023-05-31T04:28:29;13.90;1.00
1592;DHT22;789;51.612;7.510;2023-05-31T04:30:57;13.90;1.00
1592;DHT22;789;51.612;7.510;2023-05-31T04:33:24;14.00;1.00
1592;DHT22;789;51.612;7.510;2023-05-31T04:35:56;14.00;1.00
1592;DHT22;789;51.612;7.510;2023-05-31T04:38:24;14.10;1.00
1592;DHT22;789;51.612;7.510;2023-05-31T04:40:53;14.10;1.00
1592;DHT22;789;51.612;7.510;2023-05-31T04:43:20;14.20;1.00
1592;DHT22;789;51.612;7.510;2023-05-31T04:45:47;14.30;1.00
1592;DHT22;789;51.612;7.510;2023-05-31T04:48:14;14.40;1.00
1592;DHT22;789;51.612;7.510;2023-05-31T04:50:42;14.50;1.00
1592;DHT22;789;51.612;7.510;2023-05-31T04:53:10;14.60;1.00
1592;DHT22;789;51.612;7.510;2023-05-31T04:55:37;14.80;1.00
1592;DHT22;789;51.612;7.510;2023-05-31T04:58:05;14.80;1.00
1592;DHT22;789;51.612;7.510;2023-05-31T05:00:33;14.90;1.00
1592;DHT22;789;51.612;7.510;2023-05-31T05:03:02;15.00;1.00
1592;DHT22;789;51.612;7.510;2023-05-31T05:05:30;15.10;1.00
1592;DHT22;789;51.612;7.510;2023-05-31T05:07:57;15.20;1.00
1592;DHT22;789;51.612;7.510;2023-05-31T05:10:25;15.30;1.00
1592;DHT22;789;51.612;7.510;2023-05-31T05:12:52;15.40;1.00
1592;DHT22;789;51.612;7.510;2023-05-31T05:15:19;15.50;1.00
1592;DHT22;789;51.612;7.510;2023-05-31T05:17:45;15.60;1.00
1592;DHT22;789;51.612;7.510;2023-05-31T05:20:12;15.70;1.00
1592;DHT22;789;51.612;7.510;2023-05-31T05:22:41;15.80;1.00
1592;DHT22;789;51.612;7.510;2023-05-31T05:25:08;15.90;1.00
1592;DHT22;789;51.612;7.510;2023-05-31T05:27:36;16.00;1.00
1592;DHT22;789;51.612;7.510;2023-05-31T05:30:04;16.10;1.00
1592;DHT22;789;51.612;7.510;2023-05-31T05:32:30;16.30;1.00
1592;DHT22;789;51.612;7.510;2023-05-31T05:34:58;16.50;1.00
1592;DHT22;789;51.612;7.510;2023-05-31T05:37:26;16.60;1.00
1592;DHT22;789;51.612;7.510;2023-05-31T05:39:52;16.80;1.00
1592;DHT22;789;51.612;7.510;2023-05-31T05:42:19;16.90;1.00
1592;DHT22;789;51.612;7.510;2023-05-31T05:44:47;16.90;1.00
1592;DHT22;789;51.612;7.510;2023-05-31T05:47:14;17.00;1.00
1592;DHT22;789;51.612;7.510;2023-05-31T05:49:40;17.10;1.00
1592;DHT22;789;51.612;7.510;2023-05-31T05:52:07;17.20;1.00
1592;DHT22;789;51.612;7.510;2023-05-31T05:54:34;17.30;1.00
1592;DHT22;789;51.612;7.510;2023-05-31T05:57:01;17.50;1.00
1592;DHT22;789;51.612;7.510;2023-05-31T05:59:27;17.70;1.00
1592;DHT22;789;51.612;7.510;2023-05-31T06:01:55;17.90;1.00
1592;DHT22;789;51.612;7.510;2023-05-31T06:04:22;18.10;1.00
1592;DHT22;789;51.612;7.510;2023-05-31T06:06:49;18.20;1.00
1592;DHT22;789;51.612;7.510;2023-05-31T06:09:15;18.40;1.00
1592;DHT22;789;51.612;7.510;2023-05-31T06:11:42;18.50;1.00
1592;DHT22;789;51.612;7.510;2023-05-31T06:14:09;18.70;1.00
1592;DHT22;789;51.612;7.510;2023-05-31T06:16:36;18.80;1.00
1592;DHT22;789;51.612;7.510;2023-05-31T06:19:04;18.80;1.00
1592;DHT22;789;51.612;7.510;2023-05-31T06:21:30;18.80;1.00
1592;DHT22;789;51.612;7.510;2023-05-31T06:23:57;18.90;1.00
1592;DHT22;789;51.612;7.510;2023-05-31T06:26:25;18.90;1.00
1592;DHT22;789;51.612;7.510;2023-05-31T06:28:52;19.10;1.00
1592;DHT22;789;51.612;7.510;2023-05-31T06:31:19;19.30;1.00
1592;DHT22;789;51.612;7.510;2023-05-31T06:33:46;19.50;1.00
1592;DHT22;789;51.612;7.510;2023-05-31T06:36:15;19.70;1.00
1592;DHT22;789;51.612;7.510;2023-05-31T06:38:42;19.90;1.00
1592;DHT22;789;51.612;7.510;2023-05-31T06:41:09;20.10;1.00
1592;DHT22;789;51.612;7.510;2023-05-31T06:43:42;20.30;1.00
1592;DHT22;789;51.612;7.510;2023-05-31T06:46:08;20.60;1.00
1592;DHT22;789;51.612;7.510;2023-05-31T06:48:37;20.80;1.00
1592;DHT22;789;51.612;7.510;2023-05-31T06:51:04;20.90;1.00
1592;DHT22;789;51.612;7.510;2023-05-31T06:53:33;21.00;1.00
1592;DHT22;789;51.612;7.510;2023-05-31T06:56:00;21.20;1.00
1592;DHT22;789;51.612;7.510;2023-05-31T06:58:29;21.20;1.00
1592;DHT22;789;51.612;7.510;2023-05-31T07:00:59;21.30;1.00
1592;DHT22;789;51.612;7.510;2023-05-31T07:03:25;21.50;1.00
1592;DHT22;789;51.612;7.510;2023-05-31T07:05:52;21.70;1.00
1592;DHT22;789;51.612;7.510;2023-05-31T07:08:19;21.90;1.00
1592;DHT22;789;51.612;7.510;2023-05-31T07:10:58;21.90;1.00
1592;DHT22;789;51.612;7.510;2023-05-31T07:13:26;22.00;1.00
1592;DHT22;789;51.612;7.510;2023-05-31T07:15:52;22.10;1.00
1592;DHT22;789;51.612;7.510;2023-05-31T07:18:19;22.20;1.00
1592;DHT22;789;51.612;7.510;2023-05-31T07:20:46;22.40;1.00
1592;DHT22;789;51.612;7.510;2023-05-31T07:23:13;22.60;1.00
1592;DHT22;789;51.612;7.510;2023-05-31T07:25:40;22.90;1.00
1592;DHT22;789;51.612;7.510;2023-05-31T07:28:07;23.10;1.00
1592;DHT22;789;51.612;7.510;2023-05-31T07:30:35;23.30;1.00
1592;DHT22;789;51.612;7.510;2023-05-31T07:33:05;23.50;1.00
1592;DHT22;789;51.612;7.510;2023-05-31T07:35:32;23.70;1.00
1592;DHT22;789;51.612;7.510;2023-05-31T07:37:58;23.90;1.00
1592;DHT22;789;51.612;7.510;2023-05-31T07:40:25;24.00;1.00
1592;DHT22;789;51.612;7.510;2023-05-31T07:42:53;24.10;1.00
1592;DHT22;789;51.612;7.510;2023-05-31T07:45:21;24.30;1.00
1592;DHT22;789;51.612;7.510;2023-05-31T07:47:48;24.70;1.00
1592;DHT22;789;51.612;7.510;2023-05-31T07:50:16;25.10;1.00
1592;DHT22;789;51.612;7.510;2023-05-31T07:52:43;25.50;1.00
1592;DHT22;789;51.612;7.510;2023-05-31T07:55:11;26.10;1.00
1592;DHT22;789;51.612;7.510;2023-05-31T07:57:39;26.70;1.00
1592;DHT22;789;51.612;7.510;2023-05-31T08:00:07;27.30;1.00
1592;DHT22;789;51.612;7.510;2023-05-31T08:02:36;27.70;1.00
1592;DHT22;789;51.612;7.510;2023-05-31T08:05:04;28.10;1.00
1592;DHT22;789;51.612;7.510;2023-05-31T08:07:33;28.60;1.00
1592;DHT22;789;51.612;7.510;2023-05-31T08:10:00;29.10;1.00
1592;DHT22;789;51.612;7.510;2023-05-31T08:12:27;29.90;1.00
1592;DHT22;789;51.612;7.510;2023-05-31T08:14:54;30.50;1.00
1592;DHT22;789;51.612;7.510;2023-05-31T08:17:20;30.90;1.00
1592;DHT22;789;51.612;7.510;2023-05-31T08:19:48;31.40;1.00
1592;DHT22;789;51.612;7.510;2023-05-31T08:22:15;31.80;1.00
1592;DHT22;789;51.612;7.510;2023-05-31T08:24:42;32.40;1.00
1592;DHT22;789;51.612;7.510;2023-05-31T08:27:09;32.90;1.00
1592;DHT22;789;51.612;7.510;2023-05-31T08:29:36;33.60;1.00
1592;DHT22;789;51.612;7.510;2023-05-31T08:32:04;34.50;1.00
1592;DHT22;789;51.612;7.510;2023-05-31T08:34:31;35.20;1.00
1592;DHT22;789;51.612;7.510;2023-05-31T08:36:59;35.70;1.00
1592;DHT22;789;51.612;7.510;2023-05-31T08:39:26;36.20;1.00
1592;DHT22;789;51.612;7.510;2023-05-31T08:42:01;36.70;1.00
1592;DHT22;789;51.612;7.510;2023-05-31T08:44:29;36.90;1.00
1592;DHT22;789;51.612;7.510;2023-05-31T08:46:58;37.30;1.00
1592;DHT22;789;51.612;7.510;2023-05-31T08:49:26;37.70;1.00
1592;DHT22;789;51.612;7.510;2023-05-31T08:51:54;38.10;1.00
1592;DHT22;789;51.612;7.510;2023-05-31T08:54:23;38.50;1.00
1592;DHT22;789;51.612;7.510;2023-05-31T08:56:51;38.90;1.00
1592;DHT22;789;51.612;7.510;2023-05-31T08:59:19;39.20;1.00
1592;DHT22;789;51.612;7.510;2023-05-31T09:01:46;39.40;1.00
1592;DHT22;789;51.612;7.510;2023-05-31T09:04:14;39.90;1.00
1592;DHT22;789;51.612;7.510;2023-05-31T09:06:41;40.40;1.00
1592;DHT22;789;51.612;7.510;2023-05-31T09:09:08;40.90;1.00
1592;DHT22;789;51.612;7.510;2023-05-31T09:11:36;41.10;1.00
1592;DHT22;789;51.612;7.510;2023-05-31T09:14:06;41.30;1.00
1592;DHT22;789;51.612;7.510;2023-05-31T09:16:34;41.50;1.00
1592;DHT22;789;51.612;7.510;2023-05-31T09:19:02;41.00;1.00
1592;DHT22;789;51.612;7.510;2023-05-31T09:21:37;40.80;1.00
1592;DHT22;789;51.612;7.510;2023-05-31T09:24:05;40.80;1.00
1592;DHT22;789;51.612;7.510;2023-05-31T09:26:33;41.00;1.00
1592;DHT22;789;51.612;7.510;2023-05-31T09:29:01;41.30;1.00
1592;DHT22;789;51.612;7.510;2023-05-31T09:31:28;41.50;1.00
1592;DHT22;789;51.612;7.510;2023-05-31T09:33:55;41.30;1.00
1592;DHT22;789;51.612;7.510;2023-05-31T09:36:24;41.50;1.00
1592;DHT22;789;51.612;7.510;2023-05-31T09:38:58;41.80;1.00
1592;DHT22;789;51.612;7.510;2023-05-31T09:41:26;42.40;1.00
1592;DHT22;789;51.612;7.510;2023-05-31T09:43:53;42.50;1.00
1592;DHT22;789;51.612;7.510;2023-05-31T09:46:22;42.30;1.00
1592;DHT22;789;51.612;7.510;2023-05-31T09:48:57;42.10;1.00
1592;DHT22;789;51.612;7.510;2023-05-31T09:51:30;42.20;1.00
1592;DHT22;789;51.612;7.510;2023-05-31T09:53:59;42.70;1.00
1592;DHT22;789;51.612;7.510;2023-05-31T09:56:28;42.40;1.00
1592;DHT22;789;51.612;7.510;2023-05-31T09:58:56;42.10;1.00
1592;DHT22;789;51.612;7.510;2023-05-31T10:01:24;42.40;1.00
1592;DHT22;789;51.612;7.510;2023-05-31T10:03:51;43.30;1.00
1592;DHT22;789;51.612;7.510;2023-05-31T10:06:19;43.90;1.00
1592;DHT22;789;51.612;7.510;2023-05-31T10:08:47;43.90;1.00
1592;DHT22;789;51.612;7.510;2023-05-31T10:11:16;43.60;1.00
1592;DHT22;789;51.612;7.510;2023-05-31T10:13:44;43.10;1.00
1592;DHT22;789;51.612;7.510;2023-05-31T10:16:15;42.60;1.00
1592;DHT22;789;51.612;7.510;2023-05-31T10:18:44;42.20;1.00
1592;DHT22;789;51.612;7.510;2023-05-31T10:21:16;42.20;1.00
1592;DHT22;789;51.612;7.510;2023-05-31T10:23:54;42.30;1.00
1592;DHT22;789;51.612;7.510;2023-05-31T10:26:22;42.40;1.00
1592;DHT22;789;51.612;7.510;2023-05-31T10:28:56;42.70;1.00
1592;DHT22;789;51.612;7.510;2023-05-31T10:31:28;43.40;1.00
1592;DHT22;789;51.612;7.510;2023-05-31T10:34:06;44.10;1.00
1592;DHT22;789;51.612;7.510;2023-05-31T10:36:35;44.30;1.00
1592;DHT22;789;51.612;7.510;2023-05-31T10:39:07;44.40;1.00
1592;DHT22;789;51.612;7.510;2023-05-31T10:41:40;44.00;1.00
1592;DHT22;789;51.612;7.510;2023-05-31T10:44:12;43.40;1.00
1592;DHT22;789;51.612;7.510;2023-05-31T10:46:44;43.00;1.00
1592;DHT22;789;51.612;7.510;2023-05-31T10:49:15;42.80;1.00
1592;DHT22;789;51.612;7.510;2023-05-31T10:51:45;42.90;1.00
1592;DHT22;789;51.612;7.510;2023-05-31T10:54:18;43.40;1.00
1592;DHT22;789;51.612;7.510;2023-05-31T10:56:52;43.90;1.00
1592;DHT22;789;51.612;7.510;2023-05-31T10:59:19;43.90;1.00
1592;DHT22;789;51.612;7.510;2023-05-31T11:01:46;43.40;1.00
1592;DHT22;789;51.612;7.510;2023-05-31T11:04:21;42.90;1.00
1592;DHT22;789;51.612;7.510;2023-05-31T11:06:52;42.00;1.00
1592;DHT22;789;51.612;7.510;2023-05-31T11:09:19;41.70;1.00
1592;DHT22;789;51.612;7.510;2023-05-31T11:11:47;41.50;1.00
1592;DHT22;789;51.612;7.510;2023-05-31T11:14:26;41.70;1.00
1592;DHT22;789;51.612;7.510;2023-05-31T11:17:13;41.30;1.00
1592;DHT22;789;51.612;7.510;2023-05-31T11:19:42;41.10;1.00
1592;DHT22;789;51.612;7.510;2023-05-31T11:22:14;40.90;1.00
1592;DHT22;789;51.612;7.510;2023-05-31T11:24:48;40.50;1.00
1592;DHT22;789;51.612;7.510;2023-05-31T11:27:17;39.80;1.00
1592;DHT22;789;51.612;7.510;2023-05-31T11:29:57;39.80;1.00
1592;DHT22;789;51.612;7.510;2023-05-31T11:32:54;39.80;1.00
1592;DHT22;789;51.612;7.510;2023-05-31T11:35:22;39.20;1.00
1592;DHT22;789;51.612;7.510;2023-05-31T11:37:50;38.30;1.00
1592;DHT22;789;51.612;7.510;2023-05-31T11:40:27;37.00;1.00
1592;DHT22;789;51.612;7.510;2023-05-31T11:42:54;35.40;1.00
1592;DHT22;789;51.612;7.510;2023-05-31T11:45:23;33.80;1.00
1592;DHT22;789;51.612;7.510;2023-05-31T11:47:57;32.50;1.00
1592;DHT22;789;51.612;7.510;2023-05-31T11:50:27;31.40;1.00
1592;DHT22;789;51.612;7.510;2023-05-31T11:52:54;30.60;1.00
1592;DHT22;789;51.612;7.510;2023-05-31T11:55:23;29.80;1.00
1592;DHT22;789;51.612;7.510;2023-05-31T11:57:50;29.10;1.00
1592;DHT22;789;51.612;7.510;2023-05-31T12:00:19;28.70;1.00
1592;DHT22;789;51.612;7.510;2023-05-31T12:02:51;28.20;1.00
1592;DHT22;789;51.612;7.510;2023-05-31T12:05:18;27.80;1.00
1592;DHT22;789;51.612;7.510;2023-05-31T12:07:52;27.50;1.00
1592;DHT22;789;51.612;7.510;2023-05-31T12:10:20;27.20;1.00
1592;DHT22;789;51.612;7.510;2023-05-31T12:12:47;27.00;1.00
1592;DHT22;789;51.612;7.510;2023-05-31T12:15:16;26.80;1.00
1592;DHT22;789;51.612;7.510;2023-05-31T12:17:43;26.50;1.00
1592;DHT22;789;51.612;7.510;2023-05-31T12:20:11;26.50;1.00
1592;DHT22;789;51.612;7.510;2023-05-31T12:22:39;26.40;1.00
1592;DHT22;789;51.612;7.510;2023-05-31T12:25:08;26.30;1.00
1592;DHT22;789;51.612;7.510;2023-05-31T12:27:35;26.10;1.00
1592;DHT22;789;51.612;7.510;2023-05-31T12:30:02;26.00;1.00
1592;DHT22;789;51.612;7.510;2023-05-31T12:32:29;26.00;1.00
1592;DHT22;789;51.612;7.510;2023-05-31T12:35:03;25.90;1.00
1592;DHT22;789;51.612;7.510;2023-05-31T12:37:33;25.90;1.00
1592;DHT22;789;51.612;7.510;2023-05-31T12:40:13;25.90;1.00
1592;DHT22;789;51.612;7.510;2023-05-31T12:42:41;25.90;1.00
1592;DHT22;789;51.612;7.510;2023-05-31T12:45:08;25.90;1.00
1592;DHT22;789;51.612;7.510;2023-05-31T12:47:36;25.90;1.00
1592;DHT22;789;51.612;7.510;2023-05-31T12:50:03;25.90;1.00
1592;DHT22;789;51.612;7.510;2023-05-31T12:52:33;26.00;1.00
1592;DHT22;789;51.612;7.510;2023-05-31T12:55:00;26.00;1.00
1592;DHT22;789;51.612;7.510;2023-05-31T12:57:28;26.10;1.00
1592;DHT22;789;51.612;7.510;2023-05-31T13:00:10;26.10;1.00
1592;DHT22;789;51.612;7.510;2023-05-31T13:02:38;26.10;1.00
1592;DHT22;789;51.612;7.510;2023-05-31T13:05:07;25.90;1.00
1592;DHT22;789;51.612;7.510;2023-05-31T13:07:34;25.90;1.00
1592;DHT22;789;51.612;7.510;2023-05-31T13:10:04;25.80;1.00
1592;DHT22;789;51.612;7.510;2023-05-31T13:12:34;25.80;1.00
1592;DHT22;789;51.612;7.510;2023-05-31T13:15:01;25.80;1.00
1592;DHT22;789;51.612;7.510;2023-05-31T13:17:28;25.90;1.00
1592;DHT22;789;51.612;7.510;2023-05-31T13:19:55;25.90;1.00
1592;DHT22;789;51.612;7.510;2023-05-31T13:22:23;25.80;1.00
1592;DHT22;789;51.612;7.510;2023-05-31T13:24:50;25.80;1.00
1592;DHT22;789;51.612;7.510;2023-05-31T13:27:20;25.70;1.00
1592;DHT22;789;51.612;7.510;2023-05-31T13:29:50;25.60;1.00
1592;DHT22;789;51.612;7.510;2023-05-31T13:32:17;25.60;1.00
1592;DHT22;789;51.612;7.510;2023-05-31T13:34:43;25.50;1.00
1592;DHT22;789;51.612;7.510;2023-05-31T13:37:10;25.50;1.00
1592;DHT22;789;51.612;7.510;2023-05-31T13:39:37;25.50;1.00
1592;DHT22;789;51.612;7.510;2023-05-31T13:42:04;25.50;1.00
1592;DHT22;789;51.612;7.510;2023-05-31T13:44:32;25.50;1.00
1592;DHT22;789;51.612;7.510;2023-05-31T13:47:00;25.50;1.00
1592;DHT22;789;51.612;7.510;2023-05-31T13:49:28;25.50;1.00
1592;DHT22;789;51.612;7.510;2023-05-31T13:51:58;25.40;1.00
1592;DHT22;789;51.612;7.510;2023-05-31T13:54:25;25.40;1.00
1592;DHT22;789;51.612;7.510;2023-05-31T13:56:52;25.20;1.00
1592;DHT22;789;51.612;7.510;2023-05-31T13:59:23;25.40;1.00
1592;DHT22;789;51.612;7.510;2023-05-31T14:01:52;25.50;1.00
1592;DHT22;789;51.612;7.510;2023-05-31T14:04:20;25.50;1.00
1592;DHT22;789;51.612;7.510;2023-05-31T14:06:47;25.50;1.00
1592;DHT22;789;51.612;7.510;2023-05-31T14:09:14;25.50;1.00
1592;DHT22;789;51.612;7.510;2023-05-31T14:11:42;25.40;1.00
1592;DHT22;789;51.612;7.510;2023-05-31T14:14:09;25.40;1.00
1592;DHT22;789;51.612;7.510;2023-05-31T14:16:36;25.40;1.00
1592;DHT22;789;51.612;7.510;2023-05-31T14:19:02;25.40;1.00
1592;DHT22;789;51.612;7.510;2023-05-31T14:21:30;25.40;1.00
1592;DHT22;789;51.612;7.510;2023-05-31T14:23:57;25.50;1.00
1592;DHT22;789;51.612;7.510;2023-05-31T14:26:24;25.50;1.00
1592;DHT22;789;51.612;7.510;2023-05-31T14:28:52;25.60;1.00
1592;DHT22;789;51.612;7.510;2023-05-31T14:31:18;25.60;1.00
1592;DHT22;789;51.612;7.510;2023-05-31T14:33:46;25.60;1.00
1592;DHT22;789;51.612;7.510;2023-05-31T14:36:13;25.60;1.00
1592;DHT22;789;51.612;7.510;2023-05-31T14:38:41;25.50;1.00
1592;DHT22;789;51.612;7.510;2023-05-31T14:41:08;25.50;1.00
1592;DHT22;789;51.612;7.510;2023-05-31T14:43:34;25.40;1.00
1592;DHT22;789;51.612;7.510;2023-05-31T14:46:01;25.40;1.00
1592;DHT22;789;51.612;7.510;2023-05-31T14:48:28;25.40;1.00
1592;DHT22;789;51.612;7.510;2023-05-31T14:50:54;25.40;1.00
1592;DHT22;789;51.612;7.510;2023-05-31T14:53:21;25.30;1.00
1592;DHT22;789;51.612;7.510;2023-05-31T14:55:51;25.30;1.00
1592;DHT22;789;51.612;7.510;2023-05-31T14:58:17;25.30;1.00
1592;DHT22;789;51.612;7.510;2023-05-31T15:00:46;25.30;1.00
1592;DHT22;789;51.612;7.510;2023-05-31T15:03:12;25.30;1.00
1592;DHT22;789;51.612;7.510;2023-05-31T15:05:39;25.40;1.00
1592;DHT22;789;51.612;7.510;2023-05-31T15:08:06;25.40;1.00
1592;DHT22;789;51.612;7.510;2023-05-31T15:10:33;25.40;1.00
1592;DHT22;789;51.612;7.510;2023-05-31T15:13:01;25.30;1.00
1592;DHT22;789;51.612;7.510;2023-05-31T15:15:28;25.20;1.00
1592;DHT22;789;51.612;7.510;2023-05-31T15:17:54;25.20;1.00
1592;DHT22;789;51.612;7.510;2023-05-31T15:20:21;25.20;1.00
1592;DHT22;789;51.612;7.510;2023-05-31T15:22:48;25.10;1.00
1592;DHT22;789;51.612;7.510;2023-05-31T15:25:15;25.10;1.00
1592;DHT22;789;51.612;7.510;2023-05-31T15:27:45;25.10;1.00
1592;DHT22;789;51.612;7.510;2023-05-31T15:30:13;25.10;1.00
1592;DHT22;789;51.612;7.510;2023-05-31T15:32:40;25.10;1.00
1592;DHT22;789;51.612;7.510;2023-05-31T15:35:07;25.10;1.00
1592;DHT22;789;51.612;7.510;2023-05-31T15:37:34;25.10;1.00
1592;DHT22;789;51.612;7.510;2023-05-31T15:40:01;25.10;1.00
1592;DHT22;789;51.612;7.510;2023-05-31T15:42:27;25.10;1.00
1592;DHT22;789;51.612;7.510;2023-05-31T15:44:54;25.10;1.00
1592;DHT22;789;51.612;7.510;2023-05-31T15:47:22;25.10;1.00
1592;DHT22;789;51.612;7.510;2023-05-31T15:49:49;25.10;1.00
1592;DHT22;789;51.612;7.510;2023-05-31T15:52:15;25.00;1.00
1592;DHT22;789;51.612;7.510;2023-05-31T15:54:42;24.90;1.00
1592;DHT22;789;51.612;7.510;2023-05-31T15:57:09;24.90;1.00
1592;DHT22;789;51.612;7.510;2023-05-31T15:59:35;24.90;1.00
1592;DHT22;789;51.612;7.510;2023-05-31T16:02:02;24.90;1.00
1592;DHT22;789;51.612;7.510;2023-05-31T16:04:31;24.90;1.00
1592;DHT22;789;51.612;7.510;2023-05-31T16:06:57;24.90;1.00
1592;DHT22;789;51.612;7.510;2023-05-31T16:09:24;24.80;1.00
1592;DHT22;789;51.612;7.510;2023-05-31T16:11:51;24.80;1.00
1592;DHT22;789;51.612;7.510;2023-05-31T16:14:17;24.80;1.00
1592;DHT22;789;51.612;7.510;2023-05-31T16:16:44;24.70;1.00
1592;DHT22;789;51.612;7.510;2023-05-31T16:19:11;24.80;1.00
1592;DHT22;789;51.612;7.510;2023-05-31T16:21:39;24.70;1.00
1592;DHT22;789;51.612;7.510;2023-05-31T16:24:06;24.70;1.00
1592;DHT22;789;51.612;7.510;2023-05-31T16:26:35;24.70;1.00
1592;DHT22;789;51.612;7.510;2023-05-31T16:29:02;24.70;1.00
1592;DHT22;789;51.612;7.510;2023-05-31T16:31:28;24.70;1.00
1592;DHT22;789;51.612;7.510;2023-05-31T16:33:55;24.70;1.00
1592;DHT22;789;51.612;7.510;2023-05-31T16:36:23;24.60;1.00
1592;DHT22;789;51.612;7.510;2023-05-31T16:38:51;24.60;1.00
1592;DHT22;789;51.612;7.510;2023-05-31T16:41:18;24.60;1.00